Vrsac, Serbia
Current Conditions -  °F | °C
As of 7:30 AM on Saturday 01 Nov 2014 (Local Time) from LYVR Reporting Station
Haze Haze  
Wind Chill: 43°   Ceiling: 3300
Heat Index: 43°   Visibility: 1.8mi
Dew Point: 43°   Wind: 1mph
Humidity: 100%   Direction: NA
Pressure: 30.33"   Gusts: NA
Location:  45.13°N, 21.3°E
Report Text: LYVR 010530Z VRB01KT 3000 BR OVC033 06/06 Q1027 NOSIG
Loading
Personal Weather Stations






























Interactive Weather Map
Tropical Storm Tracking
New forecast layout! Learn more

10-Day Weather Forecast

Advertisements
Track Severe Weather on mobile